sensor_id;sensor_type;location;lat;lon;timestamp;temperature;humidity
43151;DHT22;28755;51.478;5.702;2022-12-24T00:02:00;11.20;99.90
43151;DHT22;28755;51.478;5.702;2022-12-24T00:04:25;11.10;99.90
43151;DHT22;28755;51.478;5.702;2022-12-24T00:06:51;11.10;99.90
43151;DHT22;28755;51.478;5.702;2022-12-24T00:09:17;11.00;99.90
43151;DHT22;28755;51.478;5.702;2022-12-24T00:11:42;11.00;99.90
43151;DHT22;28755;51.478;5.702;2022-12-24T00:14:08;11.00;99.90
43151;DHT22;28755;51.478;5.702;2022-12-24T00:16:33;11.00;99.90
43151;DHT22;28755;51.478;5.702;2022-12-24T00:18:59;11.00;99.90
43151;DHT22;28755;51.478;5.702;2022-12-24T00:21:25;11.10;99.90
43151;DHT22;28755;51.478;5.702;2022-12-24T00:23:50;11.00;99.90
43151;DHT22;28755;51.478;5.702;2022-12-24T00:26:16;11.10;99.90
43151;DHT22;28755;51.478;5.702;2022-12-24T00:28:41;11.10;99.90
43151;DHT22;28755;51.478;5.702;2022-12-24T00:31:18;11.00;99.90
43151;DHT22;28755;51.478;5.702;2022-12-24T00:33:45;11.10;99.90
43151;DHT22;28755;51.478;5.702;2022-12-24T00:36:11;11.10;99.90
43151;DHT22;28755;51.478;5.702;2022-12-24T00:38:37;11.10;99.90
43151;DHT22;28755;51.478;5.702;2022-12-24T00:41:05;11.00;99.90
43151;DHT22;28755;51.478;5.702;2022-12-24T00:43:31;11.20;99.90
43151;DHT22;28755;51.478;5.702;2022-12-24T00:45:58;11.20;99.90
43151;DHT22;28755;51.478;5.702;2022-12-24T00:48:23;11.10;99.90
43151;DHT22;28755;51.478;5.702;2022-12-24T00:50:50;11.10;99.90
43151;DHT22;28755;51.478;5.702;2022-12-24T00:53:16;11.10;99.90
43151;DHT22;28755;51.478;5.702;2022-12-24T00:55:42;11.10;99.90
43151;DHT22;28755;51.478;5.702;2022-12-24T00:58:08;11.10;99.90
43151;DHT22;28755;51.478;5.702;2022-12-24T01:00:33;11.10;99.90
43151;DHT22;28755;51.478;5.702;2022-12-24T01:02:59;11.10;99.90
43151;DHT22;28755;51.478;5.702;2022-12-24T01:05:24;11.00;99.90
43151;DHT22;28755;51.478;5.702;2022-12-24T01:07:50;11.00;99.90
43151;DHT22;28755;51.478;5.702;2022-12-24T01:10:18;11.00;99.90
43151;DHT22;28755;51.478;5.702;2022-12-24T01:12:45;11.00;99.90
43151;DHT22;28755;51.478;5.702;2022-12-24T01:15:12;10.90;99.90
43151;DHT22;28755;51.478;5.702;2022-12-24T01:17:37;10.90;99.90
43151;DHT22;28755;51.478;5.702;2022-12-24T01:20:05;10.90;99.90
43151;DHT22;28755;51.478;5.702;2022-12-24T01:22:31;10.80;99.90
43151;DHT22;28755;51.478;5.702;2022-12-24T01:24:57;10.80;99.90
43151;DHT22;28755;51.478;5.702;2022-12-24T01:27:22;10.80;99.90
43151;DHT22;28755;51.478;5.702;2022-12-24T01:29:48;10.90;99.90
43151;DHT22;28755;51.478;5.702;2022-12-24T01:32:13;10.80;99.90
43151;DHT22;28755;51.478;5.702;2022-12-24T01:34:39;10.80;99.90
43151;DHT22;28755;51.478;5.702;2022-12-24T01:37:04;10.80;99.90
43151;DHT22;28755;51.478;5.702;2022-12-24T01:39:30;10.70;99.90
43151;DHT22;28755;51.478;5.702;2022-12-24T01:41:56;10.70;99.90
43151;DHT22;28755;51.478;5.702;2022-12-24T01:44:42;10.70;99.90
43151;DHT22;28755;51.478;5.702;2022-12-24T01:47:16;10.70;99.90
43151;DHT22;28755;51.478;5.702;2022-12-24T01:49:49;10.70;99.90
43151;DHT22;28755;51.478;5.702;2022-12-24T01:52:30;10.70;99.90
43151;DHT22;28755;51.478;5.702;2022-12-24T01:55:04;10.70;99.90
43151;DHT22;28755;51.478;5.702;2022-12-24T01:57:37;10.60;99.90
43151;DHT22;28755;51.478;5.702;2022-12-24T02:00:08;10.50;99.90
43151;DHT22;28755;51.478;5.702;2022-12-24T02:02:34;10.50;99.90
43151;DHT22;28755;51.478;5.702;2022-12-24T02:05:05;10.50;99.90
43151;DHT22;28755;51.478;5.702;2022-12-24T02:07:33;10.50;99.90
43151;DHT22;28755;51.478;5.702;2022-12-24T02:09:59;10.50;99.90
43151;DHT22;28755;51.478;5.702;2022-12-24T02:12:27;10.50;99.90
43151;DHT22;28755;51.478;5.702;2022-12-24T02:14:54;10.50;99.90
43151;DHT22;28755;51.478;5.702;2022-12-24T02:20:13;10.60;99.90
43151;DHT22;28755;51.478;5.702;2022-12-24T02:30:30;10.70;99.90
43151;DHT22;28755;51.478;5.702;2022-12-24T02:33:27;10.80;99.90
43151;DHT22;28755;51.478;5.702;2022-12-24T02:36:10;10.80;99.90
43151;DHT22;28755;51.478;5.702;2022-12-24T02:38:50;10.90;99.90
43151;DHT22;28755;51.478;5.702;2022-12-24T02:41:26;11.00;99.90
43151;DHT22;28755;51.478;5.702;2022-12-24T02:44:14;11.00;99.90
43151;DHT22;28755;51.478;5.702;2022-12-24T02:46:41;11.00;99.90
43151;DHT22;28755;51.478;5.702;2022-12-24T02:49:07;11.00;99.90
43151;DHT22;28755;51.478;5.702;2022-12-24T02:51:33;11.10;99.90
43151;DHT22;28755;51.478;5.702;2022-12-24T02:53:59;11.10;99.90
43151;DHT22;28755;51.478;5.702;2022-12-24T02:56:36;11.10;99.90
43151;DHT22;28755;51.478;5.702;2022-12-24T02:59:31;11.10;99.90
43151;DHT22;28755;51.478;5.702;2022-12-24T03:02:23;11.20;99.90
43151;DHT22;28755;51.478;5.702;2022-12-24T03:07:37;11.20;99.90
43151;DHT22;28755;51.478;5.702;2022-12-24T03:12:46;11.10;99.90
43151;DHT22;28755;51.478;5.702;2022-12-24T03:15:15;11.00;99.90
43151;DHT22;28755;51.478;5.702;2022-12-24T03:17:44;11.10;99.90
43151;DHT22;28755;51.478;5.702;2022-12-24T03:20:12;11.10;99.90
43151;DHT22;28755;51.478;5.702;2022-12-24T03:22:39;11.10;99.90
43151;DHT22;28755;51.478;5.702;2022-12-24T03:25:05;11.10;99.90
43151;DHT22;28755;51.478;5.702;2022-12-24T03:27:33;11.10;99.90
43151;DHT22;28755;51.478;5.702;2022-12-24T03:29:59;11.00;99.90
43151;DHT22;28755;51.478;5.702;2022-12-24T03:32:31;11.10;99.90
43151;DHT22;28755;51.478;5.702;2022-12-24T03:34:56;11.10;99.90
43151;DHT22;28755;51.478;5.702;2022-12-24T03:37:23;11.10;99.90
43151;DHT22;28755;51.478;5.702;2022-12-24T03:39:48;11.00;99.90
43151;DHT22;28755;51.478;5.702;2022-12-24T03:42:14;11.10;99.90
43151;DHT22;28755;51.478;5.702;2022-12-24T03:44:39;11.10;99.90
43151;DHT22;28755;51.478;5.702;2022-12-24T03:47:05;11.10;99.90
43151;DHT22;28755;51.478;5.702;2022-12-24T03:49:31;11.10;99.90
43151;DHT22;28755;51.478;5.702;2022-12-24T03:51:56;11.10;99.90
43151;DHT22;28755;51.478;5.702;2022-12-24T03:54:22;11.10;99.90
43151;DHT22;28755;51.478;5.702;2022-12-24T03:56:47;11.10;99.90
43151;DHT22;28755;51.478;5.702;2022-12-24T03:59:13;11.10;99.90
43151;DHT22;28755;51.478;5.702;2022-12-24T04:01:38;11.10;99.90
43151;DHT22;28755;51.478;5.702;2022-12-24T04:04:04;11.10;99.90
43151;DHT22;28755;51.478;5.702;2022-12-24T04:06:30;11.20;99.90
43151;DHT22;28755;51.478;5.702;2022-12-24T04:08:55;11.10;99.90
43151;DHT22;28755;51.478;5.702;2022-12-24T04:11:21;11.10;99.90
43151;DHT22;28755;51.478;5.702;2022-12-24T04:13:46;11.00;99.90
43151;DHT22;28755;51.478;5.702;2022-12-24T04:16:14;11.10;99.90
43151;DHT22;28755;51.478;5.702;2022-12-24T04:18:40;11.00;99.90
43151;DHT22;28755;51.478;5.702;2022-12-24T04:21:07;11.00;99.90
43151;DHT22;28755;51.478;5.702;2022-12-24T04:23:35;11.10;99.90
43151;DHT22;28755;51.478;5.702;2022-12-24T04:26:02;11.00;99.90
43151;DHT22;28755;51.478;5.702;2022-12-24T04:28:29;11.00;99.90
43151;DHT22;28755;51.478;5.702;2022-12-24T04:30:59;11.00;99.90
43151;DHT22;28755;51.478;5.702;2022-12-24T04:33:25;11.00;99.90
43151;DHT22;28755;51.478;5.702;2022-12-24T04:35:51;11.00;99.90
43151;DHT22;28755;51.478;5.702;2022-12-24T04:38:17;11.00;99.90
43151;DHT22;28755;51.478;5.702;2022-12-24T04:40:42;11.00;99.90
43151;DHT22;28755;51.478;5.702;2022-12-24T04:43:08;10.90;99.90
43151;DHT22;28755;51.478;5.702;2022-12-24T04:45:33;10.90;99.90
43151;DHT22;28755;51.478;5.702;2022-12-24T04:47:59;11.00;99.90
43151;DHT22;28755;51.478;5.702;2022-12-24T04:50:25;10.80;99.90
43151;DHT22;28755;51.478;5.702;2022-12-24T04:52:50;10.80;99.90
43151;DHT22;28755;51.478;5.702;2022-12-24T04:55:16;10.80;99.90
43151;DHT22;28755;51.478;5.702;2022-12-24T04:57:41;10.70;99.90
43151;DHT22;28755;51.478;5.702;2022-12-24T05:00:09;10.80;99.90
43151;DHT22;28755;51.478;5.702;2022-12-24T05:02:35;10.70;99.90
43151;DHT22;28755;51.478;5.702;2022-12-24T05:05:01;10.70;99.90
43151;DHT22;28755;51.478;5.702;2022-12-24T05:07:27;10.70;99.90
43151;DHT22;28755;51.478;5.702;2022-12-24T05:09:52;10.70;99.90
43151;DHT22;28755;51.478;5.702;2022-12-24T05:12:18;10.70;99.90
43151;DHT22;28755;51.478;5.702;2022-12-24T05:14:44;10.80;99.90
43151;DHT22;28755;51.478;5.702;2022-12-24T05:17:09;10.70;99.90
43151;DHT22;28755;51.478;5.702;2022-12-24T05:19:35;10.80;99.90
43151;DHT22;28755;51.478;5.702;2022-12-24T05:22:00;10.80;99.90
43151;DHT22;28755;51.478;5.702;2022-12-24T05:24:44;10.80;99.90
43151;DHT22;28755;51.478;5.702;2022-12-24T05:27:29;10.80;99.90
43151;DHT22;28755;51.478;5.702;2022-12-24T05:29:54;10.70;99.90
43151;DHT22;28755;51.478;5.702;2022-12-24T05:32:20;10.70;99.90
43151;DHT22;28755;51.478;5.702;2022-12-24T05:34:46;10.60;99.90
43151;DHT22;28755;51.478;5.702;2022-12-24T05:37:11;10.70;99.90
43151;DHT22;28755;51.478;5.702;2022-12-24T05:39:37;10.70;99.90
43151;DHT22;28755;51.478;5.702;2022-12-24T05:42:02;10.80;99.90
43151;DHT22;28755;51.478;5.702;2022-12-24T05:44:28;10.70;99.90
43151;DHT22;28755;51.478;5.702;2022-12-24T05:46:54;10.70;99.90
43151;DHT22;28755;51.478;5.702;2022-12-24T05:49:19;10.60;99.90
43151;DHT22;28755;51.478;5.702;2022-12-24T05:51:45;10.60;99.90
43151;DHT22;28755;51.478;5.702;2022-12-24T05:54:10;10.50;99.90
43151;DHT22;28755;51.478;5.702;2022-12-24T05:56:36;10.50;99.90
43151;DHT22;28755;51.478;5.702;2022-12-24T05:59:01;10.50;99.90
43151;DHT22;28755;51.478;5.702;2022-12-24T06:01:27;10.60;99.90
43151;DHT22;28755;51.478;5.702;2022-12-24T06:03:53;10.60;99.90
43151;DHT22;28755;51.478;5.702;2022-12-24T06:06:21;10.60;99.90
43151;DHT22;28755;51.478;5.702;2022-12-24T06:08:48;10.60;99.90
43151;DHT22;28755;51.478;5.702;2022-12-24T06:11:15;10.60;99.90
43151;DHT22;28755;51.478;5.702;2022-12-24T06:13:42;10.60;99.90
43151;DHT22;28755;51.478;5.702;2022-12-24T06:16:12;10.60;99.90
43151;DHT22;28755;51.478;5.702;2022-12-24T06:18:38;10.60;99.90
43151;DHT22;28755;51.478;5.702;2022-12-24T06:21:04;10.50;99.90
43151;DHT22;28755;51.478;5.702;2022-12-24T06:23:32;10.50;99.90
43151;DHT22;28755;51.478;5.702;2022-12-24T06:25:59;10.60;99.90
43151;DHT22;28755;51.478;5.702;2022-12-24T06:28:27;10.50;99.90
43151;DHT22;28755;51.478;5.702;2022-12-24T06:30:53;10.40;99.90
43151;DHT22;28755;51.478;5.702;2022-12-24T06:33:18;10.40;99.90
43151;DHT22;28755;51.478;5.702;2022-12-24T06:35:45;10.40;99.90
43151;DHT22;28755;51.478;5.702;2022-12-24T06:38:11;10.40;99.90
43151;DHT22;28755;51.478;5.702;2022-12-24T06:40:37;10.40;99.90
43151;DHT22;28755;51.478;5.702;2022-12-24T06:43:03;10.30;99.90
43151;DHT22;28755;51.478;5.702;2022-12-24T06:45:29;10.30;99.90
43151;DHT22;28755;51.478;5.702;2022-12-24T06:47:55;10.30;99.90
43151;DHT22;28755;51.478;5.702;2022-12-24T06:50:21;10.20;99.90
43151;DHT22;28755;51.478;5.702;2022-12-24T06:52:46;10.30;99.90
43151;DHT22;28755;51.478;5.702;2022-12-24T06:55:12;10.30;99.90
43151;DHT22;28755;51.478;5.702;2022-12-24T06:57:37;10.30;99.90
43151;DHT22;28755;51.478;5.702;2022-12-24T07:00:05;10.20;99.90
43151;DHT22;28755;51.478;5.702;2022-12-24T07:02:31;10.20;99.90
43151;DHT22;28755;51.478;5.702;2022-12-24T07:04:56;10.20;99.90
43151;DHT22;28755;51.478;5.702;2022-12-24T07:07:22;10.20;99.90
43151;DHT22;28755;51.478;5.702;2022-12-24T07:09:47;10.20;99.90
43151;DHT22;28755;51.478;5.702;2022-12-24T07:12:13;10.20;99.90
43151;DHT22;28755;51.478;5.702;2022-12-24T07:14:38;10.20;99.90
43151;DHT22;28755;51.478;5.702;2022-12-24T07:17:04;10.20;99.90
43151;DHT22;28755;51.478;5.702;2022-12-24T07:19:30;10.20;99.90
43151;DHT22;28755;51.478;5.702;2022-12-24T07:21:55;10.20;99.90
43151;DHT22;28755;51.478;5.702;2022-12-24T07:24:21;10.20;99.90
43151;DHT22;28755;51.478;5.702;2022-12-24T07:26:46;10.20;99.90
43151;DHT22;28755;51.478;5.702;2022-12-24T07:29:12;10.20;99.90
43151;DHT22;28755;51.478;5.702;2022-12-24T07:31:38;10.20;99.90
43151;DHT22;28755;51.478;5.702;2022-12-24T07:34:03;10.20;99.90
43151;DHT22;28755;51.478;5.702;2022-12-24T07:36:29;10.10;99.90
43151;DHT22;28755;51.478;5.702;2022-12-24T07:38:54;10.20;99.90
43151;DHT22;28755;51.478;5.702;2022-12-24T07:41:21;10.20;99.90
43151;DHT22;28755;51.478;5.702;2022-12-24T07:43:46;10.20;99.90
43151;DHT22;28755;51.478;5.702;2022-12-24T07:46:12;10.20;99.90
43151;DHT22;28755;51.478;5.702;2022-12-24T07:48:38;10.20;99.90
43151;DHT22;28755;51.478;5.702;2022-12-24T07:51:03;10.20;99.90
43151;DHT22;28755;51.478;5.702;2022-12-24T07:53:30;10.30;99.90
43151;DHT22;28755;51.478;5.702;2022-12-24T07:55:56;10.30;99.90
43151;DHT22;28755;51.478;5.702;2022-12-24T07:58:22;10.30;99.90
43151;DHT22;28755;51.478;5.702;2022-12-24T08:00:48;10.30;99.90
43151;DHT22;28755;51.478;5.702;2022-12-24T08:03:18;10.30;99.90
43151;DHT22;28755;51.478;5.702;2022-12-24T08:05:44;10.30;99.90
43151;DHT22;28755;51.478;5.702;2022-12-24T08:08:10;10.40;99.90
43151;DHT22;28755;51.478;5.702;2022-12-24T08:10:39;10.30;99.90
43151;DHT22;28755;51.478;5.702;2022-12-24T08:13:05;10.30;99.90
43151;DHT22;28755;51.478;5.702;2022-12-24T08:15:31;10.40;99.90
43151;DHT22;28755;51.478;5.702;2022-12-24T08:17:56;10.40;99.90
43151;DHT22;28755;51.478;5.702;2022-12-24T08:20:22;10.40;99.90
43151;DHT22;28755;51.478;5.702;2022-12-24T08:22:47;10.50;99.90
43151;DHT22;28755;51.478;5.702;2022-12-24T08:25:13;10.50;99.90
43151;DHT22;28755;51.478;5.702;2022-12-24T08:27:38;10.50;99.90
43151;DHT22;28755;51.478;5.702;2022-12-24T08:30:05;10.60;99.90
43151;DHT22;28755;51.478;5.702;2022-12-24T08:32:31;10.60;99.90
43151;DHT22;28755;51.478;5.702;2022-12-24T08:34:57;10.60;99.90
43151;DHT22;28755;51.478;5.702;2022-12-24T08:37:23;10.60;99.90
43151;DHT22;28755;51.478;5.702;2022-12-24T08:39:48;10.70;99.90
43151;DHT22;28755;51.478;5.702;2022-12-24T08:42:14;10.80;99.90
43151;DHT22;28755;51.478;5.702;2022-12-24T08:44:39;10.80;99.90
43151;DHT22;28755;51.478;5.702;2022-12-24T08:47:05;10.80;99.90
43151;DHT22;28755;51.478;5.702;2022-12-24T08:49:30;10.90;99.90
43151;DHT22;28755;51.478;5.702;2022-12-24T08:51:56;10.80;99.90
43151;DHT22;28755;51.478;5.702;2022-12-24T08:54:22;10.90;99.90
43151;DHT22;28755;51.478;5.702;2022-12-24T08:56:49;10.90;99.90
43151;DHT22;28755;51.478;5.702;2022-12-24T08:59:15;10.90;99.90
43151;DHT22;28755;51.478;5.702;2022-12-24T09:01:40;10.90;99.90
43151;DHT22;28755;51.478;5.702;2022-12-24T09:04:06;10.90;99.90
43151;DHT22;28755;51.478;5.702;2022-12-24T09:06:32;10.90;99.90
43151;DHT22;28755;51.478;5.702;2022-12-24T09:08:57;10.90;99.90
43151;DHT22;28755;51.478;5.702;2022-12-24T09:11:23;10.90;99.90
43151;DHT22;28755;51.478;5.702;2022-12-24T09:13:49;11.00;99.90
43151;DHT22;28755;51.478;5.702;2022-12-24T09:16:15;11.00;99.90
43151;DHT22;28755;51.478;5.702;2022-12-24T09:18:41;11.00;99.90
43151;DHT22;28755;51.478;5.702;2022-12-24T09:21:11;11.00;99.90
43151;DHT22;28755;51.478;5.702;2022-12-24T09:23:42;11.00;99.90
43151;DHT22;28755;51.478;5.702;2022-12-24T09:26:18;11.10;99.90
43151;DHT22;28755;51.478;5.702;2022-12-24T09:28:44;11.10;99.90
43151;DHT22;28755;51.478;5.702;2022-12-24T09:31:11;11.10;99.90
43151;DHT22;28755;51.478;5.702;2022-12-24T09:33:39;11.10;99.90
43151;DHT22;28755;51.478;5.702;2022-12-24T09:36:05;11.20;99.90
43151;DHT22;28755;51.478;5.702;2022-12-24T09:38:32;11.30;99.90
43151;DHT22;28755;51.478;5.702;2022-12-24T09:40:59;11.40;99.90
43151;DHT22;28755;51.478;5.702;2022-12-24T09:43:27;11.40;99.90
43151;DHT22;28755;51.478;5.702;2022-12-24T09:46:27;11.50;99.90
43151;DHT22;28755;51.478;5.702;2022-12-24T09:49:02;11.50;99.90
43151;DHT22;28755;51.478;5.702;2022-12-24T09:54:06;11.60;99.90
43151;DHT22;28755;51.478;5.702;2022-12-24T09:56:38;11.60;99.90
43151;DHT22;28755;51.478;5.702;2022-12-24T09:59:08;11.70;99.90
43151;DHT22;28755;51.478;5.702;2022-12-24T10:01:35;11.90;99.90
43151;DHT22;28755;51.478;5.702;2022-12-24T10:04:13;11.80;99.90
43151;DHT22;28755;51.478;5.702;2022-12-24T10:17:54;11.60;99.90
43151;DHT22;28755;51.478;5.702;2022-12-24T10:20:43;11.70;99.90
43151;DHT22;28755;51.478;5.702;2022-12-24T10:23:24;11.70;99.90
43151;DHT22;28755;51.478;5.702;2022-12-24T10:26:23;11.70;99.90
43151;DHT22;28755;51.478;5.702;2022-12-24T10:29:05;11.70;99.90
43151;DHT22;28755;51.478;5.702;2022-12-24T10:31:39;11.70;99.90
43151;DHT22;28755;51.478;5.702;2022-12-24T10:34:18;11.60;99.90
43151;DHT22;28755;51.478;5.702;2022-12-24T10:36:44;11.70;99.90
43151;DHT22;28755;51.478;5.702;2022-12-24T10:39:17;11.90;99.90
43151;DHT22;28755;51.478;5.702;2022-12-24T10:41:45;12.10;99.90
43151;DHT22;28755;51.478;5.702;2022-12-24T10:44:16;12.10;99.90
43151;DHT22;28755;51.478;5.702;2022-12-24T10:46:43;12.10;99.90
43151;DHT22;28755;51.478;5.702;2022-12-24T10:49:32;12.00;99.90
43151;DHT22;28755;51.478;5.702;2022-12-24T10:52:14;12.10;99.90
43151;DHT22;28755;51.478;5.702;2022-12-24T10:57:43;12.00;99.90
43151;DHT22;28755;51.478;5.702;2022-12-24T11:00:23;12.00;99.90
43151;DHT22;28755;51.478;5.702;2022-12-24T11:03:19;12.00;99.90
43151;DHT22;28755;51.478;5.702;2022-12-24T11:05:45;12.00;99.90
43151;DHT22;28755;51.478;5.702;2022-12-24T11:08:22;12.10;99.90
43151;DHT22;28755;51.478;5.702;2022-12-24T11:10:59;12.40;99.90
43151;DHT22;28755;51.478;5.702;2022-12-24T11:13:27;12.50;99.90
43151;DHT22;28755;51.478;5.702;2022-12-24T11:18:53;12.20;99.90
43151;DHT22;28755;51.478;5.702;2022-12-24T11:24:16;12.10;99.90
43151;DHT22;28755;51.478;5.702;2022-12-24T11:26:41;12.10;99.90
43151;DHT22;28755;51.478;5.702;2022-12-24T11:29:27;12.40;99.90
43151;DHT22;28755;51.478;5.702;2022-12-24T11:32:20;12.50;99.90
43151;DHT22;28755;51.478;5.702;2022-12-24T11:34:46;12.60;99.90
43151;DHT22;28755;51.478;5.702;2022-12-24T11:37:22;12.60;99.90
43151;DHT22;28755;51.478;5.702;2022-12-24T11:39:53;12.40;99.90
43151;DHT22;28755;51.478;5.702;2022-12-24T11:42:32;12.20;99.90
43151;DHT22;28755;51.478;5.702;2022-12-24T11:45:00;12.30;99.90
43151;DHT22;28755;51.478;5.702;2022-12-24T11:47:35;12.10;99.90
43151;DHT22;28755;51.478;5.702;2022-12-24T11:50:26;12.20;99.90
43151;DHT22;28755;51.478;5.702;2022-12-24T11:55:47;12.30;99.90
43151;DHT22;28755;51.478;5.702;2022-12-24T11:58:39;12.40;99.90
43151;DHT22;28755;51.478;5.702;2022-12-24T12:01:17;12.30;99.90
43151;DHT22;28755;51.478;5.702;2022-12-24T12:03:47;12.40;99.90
43151;DHT22;28755;51.478;5.702;2022-12-24T12:06:25;12.60;99.90
43151;DHT22;28755;51.478;5.702;2022-12-24T12:08:56;13.10;99.90
43151;DHT22;28755;51.478;5.702;2022-12-24T12:11:24;13.10;99.90
43151;DHT22;28755;51.478;5.702;2022-12-24T12:13:51;13.20;99.90
43151;DHT22;28755;51.478;5.702;2022-12-24T12:16:38;13.20;99.90
43151;DHT22;28755;51.478;5.702;2022-12-24T12:19:44;13.00;99.90
43151;DHT22;28755;51.478;5.702;2022-12-24T12:22:22;12.80;99.90
43151;DHT22;28755;51.478;5.702;2022-12-24T12:24:52;12.70;99.90
43151;DHT22;28755;51.478;5.702;2022-12-24T12:27:42;12.70;99.90
43151;DHT22;28755;51.478;5.702;2022-12-24T12:30:15;13.10;99.90
43151;DHT22;28755;51.478;5.702;2022-12-24T12:35:24;15.00;99.90
43151;DHT22;28755;51.478;5.702;2022-12-24T12:37:57;15.60;99.90
43151;DHT22;28755;51.478;5.702;2022-12-24T12:40:36;15.30;99.90
43151;DHT22;28755;51.478;5.702;2022-12-24T12:45:51;14.10;99.90
43151;DHT22;28755;51.478;5.702;2022-12-24T12:48:49;13.90;99.90
43151;DHT22;28755;51.478;5.702;2022-12-24T12:55:16;14.40;99.90
43151;DHT22;28755;51.478;5.702;2022-12-24T12:57:17;15.50;99.90
43151;DHT22;28755;51.478;5.702;2022-12-24T13:00:06;16.50;99.90
43151;DHT22;28755;51.478;5.702;2022-12-24T13:10:56;14.70;99.90
43151;DHT22;28755;51.478;5.702;2022-12-24T13:13:47;14.30;99.90
43151;DHT22;28755;51.478;5.702;2022-12-24T13:21:43;14.30;99.90
43151;DHT22;28755;51.478;5.702;2022-12-24T13:24:24;14.60;99.90
43151;DHT22;28755;51.478;5.702;2022-12-24T13:27:17;14.40;99.90
43151;DHT22;28755;51.478;5.702;2022-12-24T13:29:51;13.80;99.90
43151;DHT22;28755;51.478;5.702;2022-12-24T13:35:01;14.00;99.90
43151;DHT22;28755;51.478;5.702;2022-12-24T13:40:11;14.20;99.90
43151;DHT22;28755;51.478;5.702;2022-12-24T13:52:59;16.30;99.90
43151;DHT22;28755;51.478;5.702;2022-12-24T13:55:25;16.80;99.90
43151;DHT22;28755;51.478;5.702;2022-12-24T13:57:59;16.40;99.90
43151;DHT22;28755;51.478;5.702;2022-12-24T14:05:42;14.90;99.90
43151;DHT22;28755;51.478;5.702;2022-12-24T14:08:25;14.40;99.90
43151;DHT22;28755;51.478;5.702;2022-12-24T14:11:02;14.50;99.90
43151;DHT22;28755;51.478;5.702;2022-12-24T14:16:23;14.40;99.90
43151;DHT22;28755;51.478;5.702;2022-12-24T14:18:59;14.10;99.90
43151;DHT22;28755;51.478;5.702;2022-12-24T14:21:34;13.90;99.90
43151;DHT22;28755;51.478;5.702;2022-12-24T14:24:04;13.80;99.90
43151;DHT22;28755;51.478;5.702;2022-12-24T14:26:44;13.50;99.90
43151;DHT22;28755;51.478;5.702;2022-12-24T14:31:57;13.00;99.90
43151;DHT22;28755;51.478;5.702;2022-12-24T14:34:23;12.90;99.90
43151;DHT22;28755;51.478;5.702;2022-12-24T14:36:51;12.80;99.90
43151;DHT22;28755;51.478;5.702;2022-12-24T14:45:02;12.40;99.90
43151;DHT22;28755;51.478;5.702;2022-12-24T14:47:44;12.30;99.90
43151;DHT22;28755;51.478;5.702;2022-12-24T14:55:47;12.00;99.90
43151;DHT22;28755;51.478;5.702;2022-12-24T14:58:35;12.00;99.90
43151;DHT22;28755;51.478;5.702;2022-12-24T15:01:18;11.80;99.90
43151;DHT22;28755;51.478;5.702;2022-12-24T15:03:44;11.80;99.90
43151;DHT22;28755;51.478;5.702;2022-12-24T15:06:12;11.70;99.90
43151;DHT22;28755;51.478;5.702;2022-12-24T15:08:43;11.60;99.90
43151;DHT22;28755;51.478;5.702;2022-12-24T15:11:15;11.50;99.90
43151;DHT22;28755;51.478;5.702;2022-12-24T15:13:44;11.40;99.90
43151;DHT22;28755;51.478;5.702;2022-12-24T15:16:13;11.40;99.90
43151;DHT22;28755;51.478;5.702;2022-12-24T15:18:47;11.30;99.90
43151;DHT22;28755;51.478;5.702;2022-12-24T15:21:20;11.30;99.90
43151;DHT22;28755;51.478;5.702;2022-12-24T15:23:50;11.20;99.90
43151;DHT22;28755;51.478;5.702;2022-12-24T15:26:27;11.10;99.90
43151;DHT22;28755;51.478;5.702;2022-12-24T15:28:56;11.00;99.90
43151;DHT22;28755;51.478;5.702;2022-12-24T15:31:23;11.00;99.90
43151;DHT22;28755;51.478;5.702;2022-12-24T15:33:51;10.90;99.90
43151;DHT22;28755;51.478;5.702;2022-12-24T15:36:43;10.90;99.90
43151;DHT22;28755;51.478;5.702;2022-12-24T15:39:13;10.80;99.90
43151;DHT22;28755;51.478;5.702;2022-12-24T15:41:43;10.80;99.90
43151;DHT22;28755;51.478;5.702;2022-12-24T15:44:32;10.70;99.90
43151;DHT22;28755;51.478;5.702;2022-12-24T15:47:00;10.70;99.90
43151;DHT22;28755;51.478;5.702;2022-12-24T15:49:28;10.60;99.90
43151;DHT22;28755;51.478;5.702;2022-12-24T15:52:08;10.60;99.90
43151;DHT22;28755;51.478;5.702;2022-12-24T15:54:35;10.60;99.90
43151;DHT22;28755;51.478;5.702;2022-12-24T15:57:21;10.50;99.90
43151;DHT22;28755;51.478;5.702;2022-12-24T15:59:55;10.50;99.90
43151;DHT22;28755;51.478;5.702;2022-12-24T16:02:32;10.40;99.90
43151;DHT22;28755;51.478;5.702;2022-12-24T16:05:27;10.40;99.90
43151;DHT22;28755;51.478;5.702;2022-12-24T16:10:37;10.30;99.90
43151;DHT22;28755;51.478;5.702;2022-12-24T16:13:14;10.30;99.90
43151;DHT22;28755;51.478;5.702;2022-12-24T16:16:02;10.30;99.90
43151;DHT22;28755;51.478;5.702;2022-12-24T16:18:35;10.30;99.90
43151;DHT22;28755;51.478;5.702;2022-12-24T16:21:02;10.20;99.90
43151;DHT22;28755;51.478;5.702;2022-12-24T16:23:46;10.10;99.90
43151;DHT22;28755;51.478;5.702;2022-12-24T16:26:12;10.10;99.90
43151;DHT22;28755;51.478;5.702;2022-12-24T16:28:38;10.00;99.90
43151;DHT22;28755;51.478;5.702;2022-12-24T16:31:04;10.00;99.90
43151;DHT22;28755;51.478;5.702;2022-12-24T16:33:29;10.00;99.90
43151;DHT22;28755;51.478;5.702;2022-12-24T16:35:55;10.00;99.90
43151;DHT22;28755;51.478;5.702;2022-12-24T16:38:21;10.00;99.90
43151;DHT22;28755;51.478;5.702;2022-12-24T16:40:47;9.90;99.90
43151;DHT22;28755;51.478;5.702;2022-12-24T16:43:13;9.90;99.90
43151;DHT22;28755;51.478;5.702;2022-12-24T16:46:03;9.90;99.90
43151;DHT22;28755;51.478;5.702;2022-12-24T16:48:29;9.90;99.90
43151;DHT22;28755;51.478;5.702;2022-12-24T16:50:55;9.80;99.90
43151;DHT22;28755;51.478;5.702;2022-12-24T16:53:21;9.90;99.90
43151;DHT22;28755;51.478;5.702;2022-12-24T16:55:48;9.80;99.90
43151;DHT22;28755;51.478;5.702;2022-12-24T16:58:16;9.70;99.90
43151;DHT22;28755;51.478;5.702;2022-12-24T17:00:42;9.70;99.90
43151;DHT22;28755;51.478;5.702;2022-12-24T17:03:10;9.70;99.90
43151;DHT22;28755;51.478;5.702;2022-12-24T17:05:40;9.70;99.90
43151;DHT22;28755;51.478;5.702;2022-12-24T17:08:06;9.60;99.90
43151;DHT22;28755;51.478;5.702;2022-12-24T17:10:32;9.60;99.90
43151;DHT22;28755;51.478;5.702;2022-12-24T17:12:58;9.60;99.90
43151;DHT22;28755;51.478;5.702;2022-12-24T17:15:24;9.50;99.90
43151;DHT22;28755;51.478;5.702;2022-12-24T17:17:49;9.50;99.90
43151;DHT22;28755;51.478;5.702;2022-12-24T17:20:15;9.50;99.90
43151;DHT22;28755;51.478;5.702;2022-12-24T17:22:40;9.40;99.90
43151;DHT22;28755;51.478;5.702;2022-12-24T17:25:06;9.50;99.90
43151;DHT22;28755;51.478;5.702;2022-12-24T17:27:33;9.30;99.90
43151;DHT22;28755;51.478;5.702;2022-12-24T17:29:58;9.30;99.90
43151;DHT22;28755;51.478;5.702;2022-12-24T17:32:25;9.30;99.90
43151;DHT22;28755;51.478;5.702;2022-12-24T17:34:52;9.20;99.90